createdAt,value
2019-05-29T00:04:49.345Z,13.00
2019-05-29T00:15:49.232Z,13.20
2019-05-29T00:26:49.133Z,15.00
2019-05-29T00:37:48.997Z,14.30
2019-05-29T00:48:48.856Z,15.10
2019-05-29T00:59:48.743Z,15.90
2019-05-29T01:10:48.649Z,25.40
2019-05-29T01:21:48.491Z,14.80
2019-05-29T01:32:48.367Z,19.10
2019-05-29T01:43:48.243Z,23.20
2019-05-29T01:54:48.139Z,19.40
2019-05-29T02:05:48.005Z,16.30
2019-05-29T02:16:47.885Z,16.70
2019-05-29T02:27:47.760Z,15.60
2019-05-29T02:38:47.690Z,13.80
2019-05-29T02:49:47.527Z,15.80
2019-05-29T03:00:47.408Z,11.50
2019-05-29T03:11:47.279Z,10.10
2019-05-29T03:22:47.153Z,12.60
2019-05-29T03:33:50.309Z,12.70
2019-05-29T03:44:46.909Z,12.60
2019-05-29T03:55:46.792Z,9.10
2019-05-29T04:06:47.485Z,11.30
2019-05-29T04:17:47.548Z,11.70
2019-05-29T04:28:46.426Z,10.70
2019-05-29T04:39:46.302Z,10.60
2019-05-29T04:50:46.173Z,14.70
2019-05-29T05:01:47.045Z,15.10
2019-05-29T05:12:46.035Z,9.80
2019-05-29T05:23:45.810Z,8.60
2019-05-29T05:34:45.679Z,11.20
2019-05-29T05:45:45.555Z,11.20
2019-05-29T05:56:45.438Z,8.60
2019-05-29T06:07:45.313Z,10.70
2019-05-29T06:18:45.194Z,10.20
2019-05-29T06:29:45.095Z,7.80
2019-05-29T06:40:44.974Z,6.10
2019-05-29T06:51:44.844Z,4.70
2019-05-29T07:02:44.902Z,6.70
2019-05-29T07:13:47.666Z,7.00
2019-05-29T07:24:45.072Z,7.90
2019-05-29T07:35:45.677Z,7.90
2019-05-29T07:46:45.284Z,21.70
2019-05-29T07:57:44.889Z,6.20
2019-05-29T08:08:45.250Z,5.70
2019-05-29T08:19:59.270Z,9.10
2019-05-29T08:30:48.317Z,6.50
2019-05-29T08:41:52.524Z,6.00
2019-05-29T08:52:43.948Z,18.50
2019-05-29T09:03:44.733Z,4.20
2019-05-29T09:14:43.233Z,5.20
2019-05-29T09:25:43.131Z,4.20
2019-05-29T09:36:43.007Z,4.60
2019-05-29T09:47:42.871Z,4.00
2019-05-29T09:58:42.777Z,6.00
2019-05-29T10:09:42.639Z,3.40
2019-05-29T10:20:42.531Z,3.80
2019-05-29T10:31:42.399Z,7.20
2019-05-29T10:42:43.082Z,3.40
2019-05-29T10:53:42.199Z,2.70
2019-05-29T11:04:42.039Z,4.10
2019-05-29T11:15:41.901Z,2.70
2019-05-29T11:26:41.762Z,2.70
2019-05-29T11:37:41.641Z,3.50
2019-05-29T11:48:41.522Z,2.50
2019-05-29T11:59:41.420Z,1.50
2019-05-29T12:10:41.288Z,2.20
2019-05-29T12:21:42.726Z,2.00
2019-05-29T12:32:41.035Z,1.50
2019-05-29T12:43:40.912Z,1.80
2019-05-29T12:54:40.877Z,1.60
2019-05-29T13:05:41.686Z,2.30
2019-05-29T13:16:40.614Z,2.30
2019-05-29T13:27:40.422Z,2.40
2019-05-29T13:38:40.313Z,5.30
2019-05-29T13:49:40.186Z,2.40
2019-05-29T14:00:40.083Z,1.70
2019-05-29T14:11:39.939Z,1.30
2019-05-29T14:22:39.885Z,2.00
2019-05-29T14:33:39.687Z,1.30
2019-05-29T14:44:39.574Z,2.00
2019-05-29T14:55:40.513Z,1.50
2019-05-29T15:06:39.334Z,2.40
2019-05-29T15:17:39.208Z,1.90
2019-05-29T15:28:39.123Z,2.50
2019-05-29T15:39:38.981Z,2.80
2019-05-29T15:50:38.828Z,1.80
2019-05-29T16:01:38.720Z,6.80
2019-05-29T16:12:38.603Z,2.90
2019-05-29T16:23:38.477Z,1.80
2019-05-29T16:34:38.349Z,1.80
2019-05-29T16:45:38.246Z,2.30
2019-05-29T16:56:38.119Z,6.60
2019-05-29T17:07:37.966Z,5.40
2019-05-29T17:18:37.855Z,1.40
2019-05-29T17:29:37.728Z,2.70
2019-05-29T17:40:37.600Z,1.80
2019-05-29T17:51:37.501Z,1.90
2019-05-29T18:02:50.881Z,1.80
2019-05-29T18:13:37.236Z,6.20
2019-05-29T18:24:37.112Z,1.80
2019-05-29T18:35:36.990Z,2.20
2019-05-29T18:46:38.182Z,2.30
2019-05-29T18:57:36.758Z,1.60
2019-05-29T19:08:36.627Z,3.20
2019-05-29T19:19:36.503Z,1.40
2019-05-29T19:30:36.380Z,5.60
2019-05-29T19:41:36.266Z,3.20
2019-05-29T19:52:36.148Z,3.00
2019-05-29T20:03:36.683Z,1.50
2019-05-29T20:14:35.913Z,4.00
2019-05-29T20:25:36.812Z,2.80
2019-05-29T20:36:37.262Z,2.40
2019-05-29T20:47:35.631Z,4.10
2019-05-29T20:58:35.673Z,3.60
2019-05-29T21:09:35.301Z,4.90
2019-05-29T21:20:36.187Z,2.80
2019-05-29T21:31:35.386Z,2.00
2019-05-29T21:42:34.911Z,1.90
2019-05-29T21:53:34.789Z,2.40
2019-05-29T22:04:34.848Z,2.70
2019-05-29T22:15:34.548Z,2.70
2019-05-29T22:26:34.414Z,4.70
2019-05-29T22:37:34.292Z,2.80
2019-05-29T22:48:34.178Z,3.00
2019-05-29T22:59:34.038Z,3.00
2019-05-29T23:10:33.914Z,3.00
2019-05-29T23:21:33.802Z,3.50
2019-05-29T23:32:33.676Z,4.00
2019-05-29T23:43:33.552Z,5.70
2019-05-29T23:54:33.430Z,5.60
